Terminal Aerodrome Forecast
Issued by NWS Topeka, KS

Home | Current Version | Previous Version | Graphics & Text | Print | Product List | Glossary On
Versions: 1 2 3 4 5 6 7 8 9 10 11 12
000
FTUS43 KTOP 182320
TAFTOP
TAF
KTOP 182320Z 1900/1924 16005KT P6SM SCT030
     FM190800 14004KT P6SM FEW200 WS010/21025KT
     FM191400 16009KT P6SM SCT150
     FM191900 16014G20KT P6SM FEW250=

USA.gov is the U.S. government's official web portal to all federal, state and local government web resources and services.